Mountain Park, Oklahoma
Current Conditions -  °F | °C
As of 10:58 PM on Saturday 25 Oct 2014 (Local Time) from KLTS Reporting Station
Clear Clear  
Wind Chill: 62°   Ceiling: Unl
Heat Index: 62°   Visibility: 10mi
Dew Point: 52°   Wind: 6mph
Humidity: 70%   Direction: 170°S
Pressure: 30.01"   Gusts: NA
Location:  34.7°N, 98.95°W
Report Text: KLTS 260358Z AUTO 17005KT 10SM CLR 17/11 A3001 RMK AO2 SLP153 T01690113 $
Loading
Personal Weather Stations






























Interactive Weather Map
Tropical Storm Tracking
New forecast layout! Learn more

10-Day Weather Forecast

Advertisements
Track Severe Weather on mobile